sensor_id;sensor_type;location;lat;lon;timestamp;temperature;humidity
3850;DHT22;1940;51.052;13.678;2023-08-20T00:00:12;24.90;76.70
3850;DHT22;1940;51.052;13.678;2023-08-20T00:02:41;24.90;76.70
3850;DHT22;1940;51.052;13.678;2023-08-20T00:05:07;24.90;76.70
3850;DHT22;1940;51.052;13.678;2023-08-20T00:07:33;25.00;76.40
3850;DHT22;1940;51.052;13.678;2023-08-20T00:09:59;25.00;76.40
3850;DHT22;1940;51.052;13.678;2023-08-20T00:12:25;25.00;76.40
3850;DHT22;1940;51.052;13.678;2023-08-20T00:14:56;25.00;76.40
3850;DHT22;1940;51.052;13.678;2023-08-20T00:17:24;25.00;76.50
3850;DHT22;1940;51.052;13.678;2023-08-20T00:19:55;25.10;76.40
3850;DHT22;1940;51.052;13.678;2023-08-20T00:22:22;25.20;76.10
3850;DHT22;1940;51.052;13.678;2023-08-20T00:24:49;25.20;76.00
3850;DHT22;1940;51.052;13.678;2023-08-20T00:27:15;25.20;76.20
3850;DHT22;1940;51.052;13.678;2023-08-20T00:29:40;25.20;76.10
3850;DHT22;1940;51.052;13.678;2023-08-20T00:32:06;25.20;76.40
3850;DHT22;1940;51.052;13.678;2023-08-20T00:34:31;25.20;76.20
3850;DHT22;1940;51.052;13.678;2023-08-20T00:36:57;25.30;76.20
3850;DHT22;1940;51.052;13.678;2023-08-20T00:39:23;25.30;76.00
3850;DHT22;1940;51.052;13.678;2023-08-20T00:41:48;25.30;76.60
3850;DHT22;1940;51.052;13.678;2023-08-20T00:44:13;25.30;76.70
3850;DHT22;1940;51.052;13.678;2023-08-20T00:46:39;25.30;77.20
3850;DHT22;1940;51.052;13.678;2023-08-20T00:49:05;25.30;77.80
3850;DHT22;1940;51.052;13.678;2023-08-20T00:51:33;25.20;78.00
3850;DHT22;1940;51.052;13.678;2023-08-20T00:54:00;25.20;77.90
3850;DHT22;1940;51.052;13.678;2023-08-20T00:56:26;25.20;77.90
3850;DHT22;1940;51.052;13.678;2023-08-20T00:58:53;25.10;78.10
3850;DHT22;1940;51.052;13.678;2023-08-20T01:01:19;25.00;77.90
3850;DHT22;1940;51.052;13.678;2023-08-20T01:03:44;25.00;77.60
3850;DHT22;1940;51.052;13.678;2023-08-20T01:06:27;25.00;78.00
3850;DHT22;1940;51.052;13.678;2023-08-20T01:09:01;25.00;78.00
3850;DHT22;1940;51.052;13.678;2023-08-20T01:11:44;25.00;78.30
3850;DHT22;1940;51.052;13.678;2023-08-20T01:14:17;25.00;78.50
3850;DHT22;1940;51.052;13.678;2023-08-20T01:16:43;24.90;78.70
3850;DHT22;1940;51.052;13.678;2023-08-20T01:19:17;24.90;78.80
3850;DHT22;1940;51.052;13.678;2023-08-20T01:24:38;24.80;79.30
3850;DHT22;1940;51.052;13.678;2023-08-20T01:29:56;24.50;79.90
3850;DHT22;1940;51.052;13.678;2023-08-20T01:32:23;24.40;80.30
3850;DHT22;1940;51.052;13.678;2023-08-20T01:34:49;24.50;80.10
3850;DHT22;1940;51.052;13.678;2023-08-20T01:37:15;24.50;80.00
3850;DHT22;1940;51.052;13.678;2023-08-20T01:39:41;24.50;79.50
3850;DHT22;1940;51.052;13.678;2023-08-20T01:42:07;24.60;79.40
3850;DHT22;1940;51.052;13.678;2023-08-20T01:44:32;24.50;79.60
3850;DHT22;1940;51.052;13.678;2023-08-20T01:46:58;24.50;79.80
3850;DHT22;1940;51.052;13.678;2023-08-20T01:49:23;24.50;79.60
3850;DHT22;1940;51.052;13.678;2023-08-20T01:51:49;24.50;79.30
3850;DHT22;1940;51.052;13.678;2023-08-20T01:54:14;24.60;79.40
3850;DHT22;1940;51.052;13.678;2023-08-20T01:56:40;24.60;79.30
3850;DHT22;1940;51.052;13.678;2023-08-20T01:59:05;24.60;79.50
3850;DHT22;1940;51.052;13.678;2023-08-20T02:01:31;24.60;79.70
3850;DHT22;1940;51.052;13.678;2023-08-20T02:03:57;24.60;80.20
3850;DHT22;1940;51.052;13.678;2023-08-20T02:06:22;24.60;80.70
3850;DHT22;1940;51.052;13.678;2023-08-20T02:08:48;24.60;80.80
3850;DHT22;1940;51.052;13.678;2023-08-20T02:11:13;24.60;80.80
3850;DHT22;1940;51.052;13.678;2023-08-20T02:13:39;24.50;80.60
3850;DHT22;1940;51.052;13.678;2023-08-20T02:16:05;24.50;80.70
3850;DHT22;1940;51.052;13.678;2023-08-20T02:18:32;24.50;80.70
3850;DHT22;1940;51.052;13.678;2023-08-20T02:20:57;24.50;80.70
3850;DHT22;1940;51.052;13.678;2023-08-20T02:23:23;24.50;80.60
3850;DHT22;1940;51.052;13.678;2023-08-20T02:25:49;24.40;80.70
3850;DHT22;1940;51.052;13.678;2023-08-20T02:28:14;24.40;80.70
3850;DHT22;1940;51.052;13.678;2023-08-20T02:30:45;24.40;80.70
3850;DHT22;1940;51.052;13.678;2023-08-20T02:33:11;24.40;80.40
3850;DHT22;1940;51.052;13.678;2023-08-20T02:35:39;24.40;80.60
3850;DHT22;1940;51.052;13.678;2023-08-20T02:38:06;24.40;80.70
3850;DHT22;1940;51.052;13.678;2023-08-20T02:40:31;24.40;80.80
3850;DHT22;1940;51.052;13.678;2023-08-20T02:42:57;24.40;81.20
3850;DHT22;1940;51.052;13.678;2023-08-20T02:45:23;24.30;81.10
3850;DHT22;1940;51.052;13.678;2023-08-20T02:47:49;24.30;80.80
3850;DHT22;1940;51.052;13.678;2023-08-20T02:50:15;24.30;80.80
3850;DHT22;1940;51.052;13.678;2023-08-20T02:52:42;24.20;81.10
3850;DHT22;1940;51.052;13.678;2023-08-20T02:55:08;24.20;81.30
3850;DHT22;1940;51.052;13.678;2023-08-20T02:57:33;24.20;81.40
3850;DHT22;1940;51.052;13.678;2023-08-20T02:59:59;24.30;81.60
3850;DHT22;1940;51.052;13.678;2023-08-20T03:02:24;24.30;81.30
3850;DHT22;1940;51.052;13.678;2023-08-20T03:04:50;24.30;81.30
3850;DHT22;1940;51.052;13.678;2023-08-20T03:07:15;24.30;81.00
3850;DHT22;1940;51.052;13.678;2023-08-20T03:09:41;24.30;81.50
3850;DHT22;1940;51.052;13.678;2023-08-20T03:12:07;24.30;81.00
3850;DHT22;1940;51.052;13.678;2023-08-20T03:14:32;24.30;81.10
3850;DHT22;1940;51.052;13.678;2023-08-20T03:16:58;24.40;81.30
3850;DHT22;1940;51.052;13.678;2023-08-20T03:19:23;24.40;81.30
3850;DHT22;1940;51.052;13.678;2023-08-20T03:21:49;24.40;81.30
3850;DHT22;1940;51.052;13.678;2023-08-20T03:24:14;24.40;81.10
3850;DHT22;1940;51.052;13.678;2023-08-20T03:26:40;24.30;81.30
3850;DHT22;1940;51.052;13.678;2023-08-20T03:29:05;24.40;81.50
3850;DHT22;1940;51.052;13.678;2023-08-20T03:31:31;24.40;81.40
3850;DHT22;1940;51.052;13.678;2023-08-20T03:33:57;24.40;81.40
3850;DHT22;1940;51.052;13.678;2023-08-20T03:36:22;24.50;81.50
3850;DHT22;1940;51.052;13.678;2023-08-20T03:38:48;24.40;81.50
3850;DHT22;1940;51.052;13.678;2023-08-20T03:41:14;24.40;81.40
3850;DHT22;1940;51.052;13.678;2023-08-20T03:43:39;24.50;81.40
3850;DHT22;1940;51.052;13.678;2023-08-20T03:46:05;24.50;81.10
3850;DHT22;1940;51.052;13.678;2023-08-20T03:48:30;24.50;80.90
3850;DHT22;1940;51.052;13.678;2023-08-20T03:50:56;24.50;81.00
3850;DHT22;1940;51.052;13.678;2023-08-20T03:53:21;24.50;81.20
3850;DHT22;1940;51.052;13.678;2023-08-20T03:55:50;24.50;81.30
3850;DHT22;1940;51.052;13.678;2023-08-20T03:58:16;24.50;81.30
3850;DHT22;1940;51.052;13.678;2023-08-20T04:00:43;24.50;81.30
3850;DHT22;1940;51.052;13.678;2023-08-20T04:03:08;24.60;81.30
3850;DHT22;1940;51.052;13.678;2023-08-20T04:05:37;24.60;81.20
3850;DHT22;1940;51.052;13.678;2023-08-20T04:08:04;24.60;81.20
3850;DHT22;1940;51.052;13.678;2023-08-20T04:10:30;24.70;81.20
3850;DHT22;1940;51.052;13.678;2023-08-20T04:12:56;24.70;81.50
3850;DHT22;1940;51.052;13.678;2023-08-20T04:15:22;24.60;81.60
3850;DHT22;1940;51.052;13.678;2023-08-20T04:17:47;24.60;81.70
3850;DHT22;1940;51.052;13.678;2023-08-20T04:20:14;24.60;81.90
3850;DHT22;1940;51.052;13.678;2023-08-20T04:22:39;24.60;81.80
3850;DHT22;1940;51.052;13.678;2023-08-20T04:25:06;24.60;81.70
3850;DHT22;1940;51.052;13.678;2023-08-20T04:27:31;24.70;81.60
3850;DHT22;1940;51.052;13.678;2023-08-20T04:29:57;24.70;81.70
3850;DHT22;1940;51.052;13.678;2023-08-20T04:32:23;24.70;81.60
3850;DHT22;1940;51.052;13.678;2023-08-20T04:34:48;24.70;81.60
3850;DHT22;1940;51.052;13.678;2023-08-20T04:37:15;24.70;81.50
3850;DHT22;1940;51.052;13.678;2023-08-20T04:39:40;24.60;81.70
3850;DHT22;1940;51.052;13.678;2023-08-20T04:42:06;24.60;82.00
3850;DHT22;1940;51.052;13.678;2023-08-20T04:44:32;24.60;81.90
3850;DHT22;1940;51.052;13.678;2023-08-20T04:46:57;24.60;82.00
3850;DHT22;1940;51.052;13.678;2023-08-20T04:49:23;24.60;82.10
3850;DHT22;1940;51.052;13.678;2023-08-20T04:51:51;24.50;82.30
3850;DHT22;1940;51.052;13.678;2023-08-20T04:54:16;24.50;82.40
3850;DHT22;1940;51.052;13.678;2023-08-20T04:56:43;24.50;82.30
3850;DHT22;1940;51.052;13.678;2023-08-20T04:59:08;24.60;82.40
3850;DHT22;1940;51.052;13.678;2023-08-20T05:01:34;24.60;82.40
3850;DHT22;1940;51.052;13.678;2023-08-20T05:03:59;24.70;82.30
3850;DHT22;1940;51.052;13.678;2023-08-20T05:06:25;24.80;82.20
3850;DHT22;1940;51.052;13.678;2023-08-20T05:08:50;24.90;82.00
3850;DHT22;1940;51.052;13.678;2023-08-20T05:11:16;24.90;82.30
3850;DHT22;1940;51.052;13.678;2023-08-20T05:13:41;25.00;81.80
3850;DHT22;1940;51.052;13.678;2023-08-20T05:16:07;25.10;81.80
3850;DHT22;1940;51.052;13.678;2023-08-20T05:18:32;25.30;81.30
3850;DHT22;1940;51.052;13.678;2023-08-20T05:20:58;25.50;81.00
3850;DHT22;1940;51.052;13.678;2023-08-20T05:23:23;25.60;80.40
3850;DHT22;1940;51.052;13.678;2023-08-20T05:25:49;25.70;80.30
3850;DHT22;1940;51.052;13.678;2023-08-20T05:28:14;25.80;80.00
3850;DHT22;1940;51.052;13.678;2023-08-20T05:30:40;25.90;80.00
3850;DHT22;1940;51.052;13.678;2023-08-20T05:33:05;26.10;79.60
3850;DHT22;1940;51.052;13.678;2023-08-20T05:35:31;26.10;79.30
3850;DHT22;1940;51.052;13.678;2023-08-20T05:37:56;26.00;79.50
3850;DHT22;1940;51.052;13.678;2023-08-20T05:40:22;26.00;79.80
3850;DHT22;1940;51.052;13.678;2023-08-20T05:42:47;26.10;79.60
3850;DHT22;1940;51.052;13.678;2023-08-20T05:45:13;26.20;79.30
3850;DHT22;1940;51.052;13.678;2023-08-20T05:47:38;26.20;79.10
3850;DHT22;1940;51.052;13.678;2023-08-20T05:50:04;26.20;79.30
3850;DHT22;1940;51.052;13.678;2023-08-20T05:52:30;26.30;79.20
3850;DHT22;1940;51.052;13.678;2023-08-20T05:54:55;26.40;79.00
3850;DHT22;1940;51.052;13.678;2023-08-20T05:57:22;26.50;78.70
3850;DHT22;1940;51.052;13.678;2023-08-20T05:59:48;26.60;78.90
3850;DHT22;1940;51.052;13.678;2023-08-20T06:02:16;26.60;78.50
3850;DHT22;1940;51.052;13.678;2023-08-20T06:04:42;26.70;78.20
3850;DHT22;1940;51.052;13.678;2023-08-20T06:07:08;26.80;78.00
3850;DHT22;1940;51.052;13.678;2023-08-20T06:09:33;26.80;78.20
3850;DHT22;1940;51.052;13.678;2023-08-20T06:11:59;26.90;77.70
3850;DHT22;1940;51.052;13.678;2023-08-20T06:14:24;26.90;77.80
3850;DHT22;1940;51.052;13.678;2023-08-20T06:16:50;27.00;77.00
3850;DHT22;1940;51.052;13.678;2023-08-20T06:19:15;27.10;77.20
3850;DHT22;1940;51.052;13.678;2023-08-20T06:21:41;27.50;75.90
3850;DHT22;1940;51.052;13.678;2023-08-20T06:24:06;27.90;74.90
3850;DHT22;1940;51.052;13.678;2023-08-20T06:26:32;27.90;74.80
3850;DHT22;1940;51.052;13.678;2023-08-20T06:28:58;28.00;74.90
3850;DHT22;1940;51.052;13.678;2023-08-20T06:31:24;28.00;75.00
3850;DHT22;1940;51.052;13.678;2023-08-20T06:33:50;28.00;74.80
3850;DHT22;1940;51.052;13.678;2023-08-20T06:36:15;28.20;73.70
3850;DHT22;1940;51.052;13.678;2023-08-20T06:38:41;28.20;73.70
3850;DHT22;1940;51.052;13.678;2023-08-20T06:41:06;28.10;74.00
3850;DHT22;1940;51.052;13.678;2023-08-20T06:43:33;28.00;74.00
3850;DHT22;1940;51.052;13.678;2023-08-20T06:45:58;27.90;74.30
3850;DHT22;1940;51.052;13.678;2023-08-20T06:48:24;27.90;74.10
3850;DHT22;1940;51.052;13.678;2023-08-20T06:50:50;27.80;74.30
3850;DHT22;1940;51.052;13.678;2023-08-20T06:53:16;27.70;74.60
3850;DHT22;1940;51.052;13.678;2023-08-20T06:55:41;27.70;75.00
3850;DHT22;1940;51.052;13.678;2023-08-20T06:58:07;27.60;75.60
3850;DHT22;1940;51.052;13.678;2023-08-20T07:00:35;28.00;74.60
3850;DHT22;1940;51.052;13.678;2023-08-20T07:03:01;28.70;73.60
3850;DHT22;1940;51.052;13.678;2023-08-20T07:05:26;29.50;71.00
3850;DHT22;1940;51.052;13.678;2023-08-20T07:07:52;29.90;70.20
3850;DHT22;1940;51.052;13.678;2023-08-20T07:10:17;30.90;67.60
3850;DHT22;1940;51.052;13.678;2023-08-20T07:12:43;31.50;66.10
3850;DHT22;1940;51.052;13.678;2023-08-20T07:15:09;32.10;64.80
3850;DHT22;1940;51.052;13.678;2023-08-20T07:17:34;32.90;63.10
3850;DHT22;1940;51.052;13.678;2023-08-20T07:20:00;33.40;62.10
3850;DHT22;1940;51.052;13.678;2023-08-20T07:22:25;33.90;61.30
3850;DHT22;1940;51.052;13.678;2023-08-20T07:24:51;34.20;60.30
3850;DHT22;1940;51.052;13.678;2023-08-20T07:27:16;34.00;60.80
3850;DHT22;1940;51.052;13.678;2023-08-20T07:29:42;33.70;60.90
3850;DHT22;1940;51.052;13.678;2023-08-20T07:32:08;33.00;62.00
3850;DHT22;1940;51.052;13.678;2023-08-20T07:34:34;32.80;62.60
3850;DHT22;1940;51.052;13.678;2023-08-20T07:37:00;33.50;61.50
3850;DHT22;1940;51.052;13.678;2023-08-20T07:39:26;34.20;60.40
3850;DHT22;1940;51.052;13.678;2023-08-20T07:41:51;35.10;58.70
3850;DHT22;1940;51.052;13.678;2023-08-20T07:44:17;35.70;57.70
3850;DHT22;1940;51.052;13.678;2023-08-20T07:46:43;35.70;57.40
3850;DHT22;1940;51.052;13.678;2023-08-20T07:49:08;34.60;58.60
3850;DHT22;1940;51.052;13.678;2023-08-20T07:51:34;35.30;57.90
3850;DHT22;1940;51.052;13.678;2023-08-20T07:53:59;35.90;56.80
3850;DHT22;1940;51.052;13.678;2023-08-20T07:56:26;36.00;57.00
3850;DHT22;1940;51.052;13.678;2023-08-20T07:58:51;35.10;57.50
3850;DHT22;1940;51.052;13.678;2023-08-20T08:01:17;34.70;59.00
3850;DHT22;1940;51.052;13.678;2023-08-20T08:03:43;34.30;58.70
3850;DHT22;1940;51.052;13.678;2023-08-20T08:06:08;33.90;59.20
3850;DHT22;1940;51.052;13.678;2023-08-20T08:08:34;34.10;58.50
3850;DHT22;1940;51.052;13.678;2023-08-20T08:10:59;33.90;58.90
3850;DHT22;1940;51.052;13.678;2023-08-20T08:13:25;33.60;60.60
3850;DHT22;1940;51.052;13.678;2023-08-20T08:15:52;32.80;62.20
3850;DHT22;1940;51.052;13.678;2023-08-20T08:18:19;32.20;63.80
3850;DHT22;1940;51.052;13.678;2023-08-20T08:20:44;31.70;65.10
3850;DHT22;1940;51.052;13.678;2023-08-20T08:23:10;31.20;65.00
3850;DHT22;1940;51.052;13.678;2023-08-20T08:25:36;31.00;65.60
3850;DHT22;1940;51.052;13.678;2023-08-20T08:28:03;31.60;64.80
3850;DHT22;1940;51.052;13.678;2023-08-20T08:30:28;32.40;63.70
3850;DHT22;1940;51.052;13.678;2023-08-20T08:32:55;33.10;62.10
3850;DHT22;1940;51.052;13.678;2023-08-20T08:35:20;33.40;61.90
3850;DHT22;1940;51.052;13.678;2023-08-20T08:37:46;33.70;60.20
3850;DHT22;1940;51.052;13.678;2023-08-20T08:40:12;33.80;60.60
3850;DHT22;1940;51.052;13.678;2023-08-20T08:42:37;33.80;61.10
3850;DHT22;1940;51.052;13.678;2023-08-20T08:45:04;33.70;60.90
3850;DHT22;1940;51.052;13.678;2023-08-20T08:47:30;33.60;61.70
3850;DHT22;1940;51.052;13.678;2023-08-20T08:49:56;33.60;62.00
3850;DHT22;1940;51.052;13.678;2023-08-20T08:52:25;34.00;60.70
3850;DHT22;1940;51.052;13.678;2023-08-20T08:54:54;33.60;61.40
3850;DHT22;1940;51.052;13.678;2023-08-20T08:57:19;33.80;61.20
3850;DHT22;1940;51.052;13.678;2023-08-20T08:59:45;33.60;62.10
3850;DHT22;1940;51.052;13.678;2023-08-20T09:02:12;33.10;63.30
3850;DHT22;1940;51.052;13.678;2023-08-20T09:04:41;32.90;63.90
3850;DHT22;1940;51.052;13.678;2023-08-20T09:07:12;32.70;64.00
3850;DHT22;1940;51.052;13.678;2023-08-20T09:09:42;32.90;63.80
3850;DHT22;1940;51.052;13.678;2023-08-20T09:12:20;32.80;64.10
3850;DHT22;1940;51.052;13.678;2023-08-20T09:14:50;33.80;62.40
3850;DHT22;1940;51.052;13.678;2023-08-20T09:17:17;33.60;62.40
3850;DHT22;1940;51.052;13.678;2023-08-20T09:19:45;33.80;62.50
3850;DHT22;1940;51.052;13.678;2023-08-20T09:22:14;34.20;61.60
3850;DHT22;1940;51.052;13.678;2023-08-20T09:24:52;33.70;61.90
3850;DHT22;1940;51.052;13.678;2023-08-20T09:27:18;33.20;63.50
3850;DHT22;1940;51.052;13.678;2023-08-20T09:30:04;33.50;62.80
3850;DHT22;1940;51.052;13.678;2023-08-20T09:32:29;34.00;62.00
3850;DHT22;1940;51.052;13.678;2023-08-20T09:34:55;34.40;60.70
3850;DHT22;1940;51.052;13.678;2023-08-20T09:37:23;34.20;61.20
3850;DHT22;1940;51.052;13.678;2023-08-20T09:39:49;34.20;61.40
3850;DHT22;1940;51.052;13.678;2023-08-20T09:42:15;34.60;60.20
3850;DHT22;1940;51.052;13.678;2023-08-20T09:44:43;34.00;60.40
3850;DHT22;1940;51.052;13.678;2023-08-20T09:47:10;33.90;60.80
3850;DHT22;1940;51.052;13.678;2023-08-20T09:49:38;33.70;61.20
3850;DHT22;1940;51.052;13.678;2023-08-20T09:52:05;34.40;59.60
3850;DHT22;1940;51.052;13.678;2023-08-20T09:57:12;33.20;60.40
3850;DHT22;1940;51.052;13.678;2023-08-20T09:59:40;32.60;62.20
3850;DHT22;1940;51.052;13.678;2023-08-20T10:02:09;32.20;63.90
3850;DHT22;1940;51.052;13.678;2023-08-20T10:04:37;31.70;64.60
3850;DHT22;1940;51.052;13.678;2023-08-20T10:07:03;31.40;66.00
3850;DHT22;1940;51.052;13.678;2023-08-20T10:09:29;31.30;67.10
3850;DHT22;1940;51.052;13.678;2023-08-20T10:11:55;32.30;65.40
3850;DHT22;1940;51.052;13.678;2023-08-20T10:14:20;33.70;62.70
3850;DHT22;1940;51.052;13.678;2023-08-20T10:16:46;34.50;60.60
3850;DHT22;1940;51.052;13.678;2023-08-20T10:19:12;35.10;59.00
3850;DHT22;1940;51.052;13.678;2023-08-20T10:21:44;35.10;59.90
3850;DHT22;1940;51.052;13.678;2023-08-20T10:24:16;35.70;58.20
3850;DHT22;1940;51.052;13.678;2023-08-20T10:26:45;36.50;57.00
3850;DHT22;1940;51.052;13.678;2023-08-20T10:29:37;36.80;56.10
3850;DHT22;1940;51.052;13.678;2023-08-20T10:32:08;36.70;56.10
3850;DHT22;1940;51.052;13.678;2023-08-20T10:34:36;36.00;57.40
3850;DHT22;1940;51.052;13.678;2023-08-20T10:37:09;35.40;58.10
3850;DHT22;1940;51.052;13.678;2023-08-20T10:39:35;35.60;57.90
3850;DHT22;1940;51.052;13.678;2023-08-20T10:44:58;37.30;55.40
3850;DHT22;1940;51.052;13.678;2023-08-20T10:47:42;38.40;53.50
3850;DHT22;1940;51.052;13.678;2023-08-20T10:50:10;39.40;51.90
3850;DHT22;1940;51.052;13.678;2023-08-20T10:52:41;39.70;51.40
3850;DHT22;1940;51.052;13.678;2023-08-20T10:55:08;40.10;49.70
3850;DHT22;1940;51.052;13.678;2023-08-20T10:57:35;40.80;49.10
3850;DHT22;1940;51.052;13.678;2023-08-20T11:00:03;41.20;48.80
3850;DHT22;1940;51.052;13.678;2023-08-20T11:02:35;40.20;49.10
3850;DHT22;1940;51.052;13.678;2023-08-20T11:05:03;39.20;51.00
3850;DHT22;1940;51.052;13.678;2023-08-20T11:07:30;38.50;52.20
3850;DHT22;1940;51.052;13.678;2023-08-20T11:09:57;38.70;51.50
3850;DHT22;1940;51.052;13.678;2023-08-20T11:12:23;39.50;49.90
3850;DHT22;1940;51.052;13.678;2023-08-20T11:14:49;40.20;49.30
3850;DHT22;1940;51.052;13.678;2023-08-20T11:17:14;39.40;50.50
3850;DHT22;1940;51.052;13.678;2023-08-20T11:19:40;38.50;51.50
3850;DHT22;1940;51.052;13.678;2023-08-20T11:22:06;37.50;53.50
3850;DHT22;1940;51.052;13.678;2023-08-20T11:24:31;37.00;54.10
3850;DHT22;1940;51.052;13.678;2023-08-20T11:26:57;36.60;54.10
3850;DHT22;1940;51.052;13.678;2023-08-20T11:29:25;36.00;55.30
3850;DHT22;1940;51.052;13.678;2023-08-20T11:31:51;36.10;55.30
3850;DHT22;1940;51.052;13.678;2023-08-20T11:34:20;35.90;55.40
3850;DHT22;1940;51.052;13.678;2023-08-20T11:36:46;35.60;55.70
3850;DHT22;1940;51.052;13.678;2023-08-20T11:39:12;35.60;56.30
3850;DHT22;1940;51.052;13.678;2023-08-20T11:41:40;34.60;56.80
3850;DHT22;1940;51.052;13.678;2023-08-20T11:44:08;33.80;57.40
3850;DHT22;1940;51.052;13.678;2023-08-20T11:46:42;33.20;58.30
3850;DHT22;1940;51.052;13.678;2023-08-20T11:49:09;32.90;59.70
3850;DHT22;1940;51.052;13.678;2023-08-20T11:51:41;32.90;60.10
3850;DHT22;1940;51.052;13.678;2023-08-20T11:54:17;32.60;60.40
3850;DHT22;1940;51.052;13.678;2023-08-20T11:56:48;32.30;60.50
3850;DHT22;1940;51.052;13.678;2023-08-20T11:59:15;32.20;61.20
3850;DHT22;1940;51.052;13.678;2023-08-20T12:01:40;32.30;60.10
3850;DHT22;1940;51.052;13.678;2023-08-20T12:04:07;32.30;59.80
3850;DHT22;1940;51.052;13.678;2023-08-20T12:06:35;32.20;59.40
3850;DHT22;1940;51.052;13.678;2023-08-20T12:09:01;32.00;60.40
3850;DHT22;1940;51.052;13.678;2023-08-20T12:11:30;32.10;59.70
3850;DHT22;1940;51.052;13.678;2023-08-20T12:13:56;32.40;58.90
3850;DHT22;1940;51.052;13.678;2023-08-20T12:16:23;32.70;59.50
3850;DHT22;1940;51.052;13.678;2023-08-20T12:18:49;32.90;56.40
3850;DHT22;1940;51.052;13.678;2023-08-20T12:21:15;33.00;57.40
3850;DHT22;1940;51.052;13.678;2023-08-20T12:23:41;33.10;57.00
3850;DHT22;1940;51.052;13.678;2023-08-20T12:26:07;33.00;57.90
3850;DHT22;1940;51.052;13.678;2023-08-20T12:28:33;33.10;57.50
3850;DHT22;1940;51.052;13.678;2023-08-20T12:30:59;32.90;58.10
3850;DHT22;1940;51.052;13.678;2023-08-20T12:33:25;32.60;58.00
3850;DHT22;1940;51.052;13.678;2023-08-20T12:35:53;32.60;58.10
3850;DHT22;1940;51.052;13.678;2023-08-20T12:38:18;32.60;57.90
3850;DHT22;1940;51.052;13.678;2023-08-20T12:40:44;32.60;57.80
3850;DHT22;1940;51.052;13.678;2023-08-20T12:43:09;32.60;58.10
3850;DHT22;1940;51.052;13.678;2023-08-20T12:45:35;32.60;57.90
3850;DHT22;1940;51.052;13.678;2023-08-20T12:48:02;32.70;57.80
3850;DHT22;1940;51.052;13.678;2023-08-20T12:50:29;32.70;58.70
3850;DHT22;1940;51.052;13.678;2023-08-20T12:52:54;32.70;60.00
3850;DHT22;1940;51.052;13.678;2023-08-20T12:55:20;32.40;59.50
3850;DHT22;1940;51.052;13.678;2023-08-20T12:57:53;32.50;60.10
3850;DHT22;1940;51.052;13.678;2023-08-20T13:00:20;32.70;59.90
3850;DHT22;1940;51.052;13.678;2023-08-20T13:02:46;32.70;59.70
3850;DHT22;1940;51.052;13.678;2023-08-20T13:05:12;32.70;59.40
3850;DHT22;1940;51.052;13.678;2023-08-20T13:07:38;32.30;59.30
3850;DHT22;1940;51.052;13.678;2023-08-20T13:10:04;32.50;60.00
3850;DHT22;1940;51.052;13.678;2023-08-20T13:12:32;32.60;60.10
3850;DHT22;1940;51.052;13.678;2023-08-20T13:14:59;32.60;60.40
3850;DHT22;1940;51.052;13.678;2023-08-20T13:17:25;32.30;60.20
3850;DHT22;1940;51.052;13.678;2023-08-20T13:19:50;32.00;61.60
3850;DHT22;1940;51.052;13.678;2023-08-20T13:22:16;32.20;60.90
3850;DHT22;1940;51.052;13.678;2023-08-20T13:24:42;32.20;61.30
3850;DHT22;1940;51.052;13.678;2023-08-20T13:27:08;32.10;60.50
3850;DHT22;1940;51.052;13.678;2023-08-20T13:29:34;32.00;60.10
3850;DHT22;1940;51.052;13.678;2023-08-20T13:31:59;32.00;60.20
3850;DHT22;1940;51.052;13.678;2023-08-20T13:34:26;32.00;60.10
3850;DHT22;1940;51.052;13.678;2023-08-20T13:36:51;31.90;60.40
3850;DHT22;1940;51.052;13.678;2023-08-20T13:39:17;31.90;61.10
3850;DHT22;1940;51.052;13.678;2023-08-20T13:41:44;31.80;61.30
3850;DHT22;1940;51.052;13.678;2023-08-20T13:44:09;31.80;61.30
3850;DHT22;1940;51.052;13.678;2023-08-20T13:46:35;31.90;60.90
3850;DHT22;1940;51.052;13.678;2023-08-20T13:49:01;32.10;60.60
3850;DHT22;1940;51.052;13.678;2023-08-20T13:51:28;32.40;61.00
3850;DHT22;1940;51.052;13.678;2023-08-20T13:53:54;32.70;61.10
3850;DHT22;1940;51.052;13.678;2023-08-20T13:56:19;32.90;60.00
3850;DHT22;1940;51.052;13.678;2023-08-20T13:58:45;33.20;60.30
3850;DHT22;1940;51.052;13.678;2023-08-20T14:01:10;33.00;58.90
3850;DHT22;1940;51.052;13.678;2023-08-20T14:03:38;32.80;59.90
3850;DHT22;1940;51.052;13.678;2023-08-20T14:06:03;32.60;60.10
3850;DHT22;1940;51.052;13.678;2023-08-20T14:08:29;32.50;61.10
3850;DHT22;1940;51.052;13.678;2023-08-20T14:10:54;32.30;61.40
3850;DHT22;1940;51.052;13.678;2023-08-20T14:13:20;32.10;62.00
3850;DHT22;1940;51.052;13.678;2023-08-20T14:15:45;32.20;62.80
3850;DHT22;1940;51.052;13.678;2023-08-20T14:18:11;32.00;62.70
3850;DHT22;1940;51.052;13.678;2023-08-20T14:20:36;31.90;63.60
3850;DHT22;1940;51.052;13.678;2023-08-20T14:23:02;31.80;64.50
3850;DHT22;1940;51.052;13.678;2023-08-20T14:25:28;31.70;63.70
3850;DHT22;1940;51.052;13.678;2023-08-20T14:27:53;31.90;63.60
3850;DHT22;1940;51.052;13.678;2023-08-20T14:30:18;31.80;63.80
3850;DHT22;1940;51.052;13.678;2023-08-20T14:32:44;31.80;63.90
3850;DHT22;1940;51.052;13.678;2023-08-20T14:35:09;31.70;63.50
3850;DHT22;1940;51.052;13.678;2023-08-20T14:37:35;31.80;63.50
3850;DHT22;1940;51.052;13.678;2023-08-20T14:40:01;32.00;63.50
3850;DHT22;1940;51.052;13.678;2023-08-20T14:42:27;31.80;64.40
3850;DHT22;1940;51.052;13.678;2023-08-20T14:44:52;31.70;64.90
3850;DHT22;1940;51.052;13.678;2023-08-20T14:47:19;31.60;64.50
3850;DHT22;1940;51.052;13.678;2023-08-20T14:49:45;31.60;65.10
3850;DHT22;1940;51.052;13.678;2023-08-20T14:52:12;31.60;64.70
3850;DHT22;1940;51.052;13.678;2023-08-20T14:54:37;31.50;64.70
3850;DHT22;1940;51.052;13.678;2023-08-20T14:57:03;31.60;65.00
3850;DHT22;1940;51.052;13.678;2023-08-20T14:59:28;31.60;65.40
3850;DHT22;1940;51.052;13.678;2023-08-20T15:01:54;31.60;65.10
3850;DHT22;1940;51.052;13.678;2023-08-20T15:04:20;31.70;64.60
3850;DHT22;1940;51.052;13.678;2023-08-20T15:06:45;31.60;65.30
3850;DHT22;1940;51.052;13.678;2023-08-20T15:09:11;31.50;65.40
3850;DHT22;1940;51.052;13.678;2023-08-20T15:11:41;31.40;65.40
3850;DHT22;1940;51.052;13.678;2023-08-20T15:14:08;31.50;65.50
3850;DHT22;1940;51.052;13.678;2023-08-20T15:16:33;31.50;65.60
3850;DHT22;1940;51.052;13.678;2023-08-20T15:18:59;31.60;66.00
3850;DHT22;1940;51.052;13.678;2023-08-20T15:21:24;31.60;65.20
3850;DHT22;1940;51.052;13.678;2023-08-20T15:23:50;31.60;65.00
3850;DHT22;1940;51.052;13.678;2023-08-20T15:26:15;31.70;65.80
3850;DHT22;1940;51.052;13.678;2023-08-20T15:28:41;31.60;65.50
3850;DHT22;1940;51.052;13.678;2023-08-20T15:31:06;31.70;65.60
3850;DHT22;1940;51.052;13.678;2023-08-20T15:33:32;31.60;65.10
3850;DHT22;1940;51.052;13.678;2023-08-20T15:35:58;31.70;65.40
3850;DHT22;1940;51.052;13.678;2023-08-20T15:38:24;31.60;65.10
3850;DHT22;1940;51.052;13.678;2023-08-20T15:40:50;31.60;64.90
3850;DHT22;1940;51.052;13.678;2023-08-20T15:43:16;31.60;64.20
3850;DHT22;1940;51.052;13.678;2023-08-20T15:45:41;31.50;65.30
3850;DHT22;1940;51.052;13.678;2023-08-20T15:48:07;31.60;65.50
3850;DHT22;1940;51.052;13.678;2023-08-20T15:50:33;31.70;65.40